Barrow, AK

10:28 PM AKST on February 12, 2016 (GMT -0900)
Wiley Post-Will Rogers Memorial | | Change Station
CLOSE
Current Station
Airport
Location: Barrow,
Elevation: 43 ft
Nearby Weather Stations
Active Advisory: Blizzard Warning

Elev 43 ft 71.28 °N, 156.79 °W | Updated 35 minutes ago

Heavy Snow
Heavy Snow Freezing Fog Blowing Snow
2 °F
Feels Like -24 °F
N
32
Wind Variable Wind from ENE

Today
High -- | Low -- °F
--% Chance of Precip.
Yesterday
High -- | Low -- °F
Precip. -- in
Pressure 29.84 in
Visibility 0.2 miles
Clouds Mostly Cloudy 700 ft
Overcast 5000 ft
Windchill -24 °F
Dew Point 0 °F
Humidity 91%
Rainfall 0.59 in
Snow Depth Not available.
10:30 AM 4:53 PM
Waxing Crescent, 28% visible
METAR PABR 130653Z 07028KT 1/4SM R07/2600V4500FT +SN FZFG BLSN BKN007 OVC050 M17/M18 A2983 RMK AO2 PK WND 07038/0634 SLP103 P0003 T11671178
Pressure 29.84 in
Visibility 0.2 miles
Clouds Mostly Cloudy 700 ft
Overcast 5000 ft
Windchill -24 °F
Dew Point 0 °F
Humidity 91%
Rainfall 0.59 in
Snow Depth Not available.
10:30 AM 4:53 PM
Waxing Crescent, 28% visible
METAR PABR 130653Z 07028KT 1/4SM R07/2600V4500FT +SN FZFG BLSN BKN007 OVC050 M17/M18 A2983 RMK AO2 PK WND 07038/0634 SLP103 P0003 T11671178

10-Day Weather Forecast

Almanac

Astronomy

Feb. 12, 2016 Rise Set
Actual Time
Civil Twilight
Nautical Twilight
Astronomical Twilight
Moon
Length of Visible Light
Length of Day
Tomorrow will be .
, % of the Moon is Illuminated

Today's Extremes

State Highs State Lows

Community

WunderPhotos

Upload Photos

1,892,526 photos uploaded!

WunderBlog® & News

Nearby

Air Quality

  Air Quality AQ Index Pollutant
Not available.

Snow Depth

Station Depth Elevation

Earthquake Activity

City Distance Mag. Time & Date
Minimum magnitude displayed is 2.5.

Coastal Water Temperatures

Place Temperature

Stations

Nearby Weather Stations

Station Location Temp. Windchill Dew Point Humidity Wind Precip. Elev Updated Type
                   

Watches & Warnings

Blizzard Warning
Issued: 2:25 PM AKST Feb. 12, 2016 – National Weather Service

... Blizzard Warning now in effect until 6 am akst Sunday...

* snow... with a storm total accumulation of 4 inches.

* Visibility... one quarter mile or less in snow and blowing snow.

* Winds... east 35 mph with gusts to 45 mph.

* Timing... blizzard conditions are now occuring and will continue
through early Sunday morning. The strongest winds and lowest
visibility will be tonight and Saturday.

* Impacts... visibility will be very poor and snow will
accumulate into drifts. Whiteout conditions will occur. Travel
and outdoor activities will be difficult.

Precautionary/preparedness actions...

A Blizzard Warning means severe winter weather conditions in
blowing snow with strong winds and very poor visibilities are
occurring or expected.